createdAt,value
2023-10-26T00:01:25.697Z,57.17
2023-10-26T00:04:26.761Z,55.47
2023-10-26T00:07:02.320Z,54.33
2023-10-26T00:09:29.443Z,47.60
2023-10-26T00:11:56.469Z,45.47
2023-10-26T00:14:23.949Z,43.28
2023-10-26T00:16:51.186Z,45.03
2023-10-26T00:19:18.280Z,44.83
2023-10-26T00:21:45.697Z,44.13
2023-10-26T00:24:13.682Z,44.20
2023-10-26T00:26:42.207Z,45.95
2023-10-26T00:29:29.750Z,44.70
2023-10-26T00:32:30.788Z,45.80
2023-10-26T00:35:12.231Z,43.00
2023-10-26T00:37:40.029Z,45.08
2023-10-26T00:40:07.686Z,45.17
2023-10-26T00:42:35.166Z,43.85
2023-10-26T00:45:02.240Z,45.78
2023-10-26T00:47:30.039Z,40.33
2023-10-26T00:49:57.314Z,42.55
2023-10-26T00:52:44.815Z,48.40
2023-10-26T00:55:26.088Z,48.97
2023-10-26T00:57:54.311Z,44.50
2023-10-26T01:00:41.711Z,47.20
2023-10-26T01:03:41.886Z,46.83
2023-10-26T01:06:10.018Z,48.03
2023-10-26T01:08:37.224Z,48.53
2023-10-26T01:11:04.928Z,49.47
2023-10-26T01:13:33.156Z,55.15
2023-10-26T01:16:00.784Z,52.60
2023-10-26T01:18:27.909Z,55.80
2023-10-26T01:20:55.892Z,56.53
2023-10-26T01:23:23.129Z,54.58
2023-10-26T01:25:55.811Z,53.65
2023-10-26T01:28:24.836Z,58.08
2023-10-26T01:31:11.761Z,54.30
2023-10-26T01:33:52.407Z,57.33
2023-10-26T01:36:19.462Z,57.05
2023-10-26T01:38:46.548Z,60.30
2023-10-26T01:41:13.472Z,62.40
2023-10-26T01:43:40.450Z,60.05
2023-10-26T01:46:27.792Z,62.83
2023-10-26T01:49:28.802Z,66.00
2023-10-26T01:52:29.738Z,65.18
2023-10-26T01:55:19.105Z,62.63
2023-10-26T01:57:46.205Z,65.88
2023-10-26T02:00:26.865Z,70.25
2023-10-26T02:03:27.958Z,66.88
2023-10-26T02:06:07.319Z,66.45
2023-10-26T02:08:34.679Z,64.53
2023-10-26T02:11:01.613Z,68.25
2023-10-26T02:13:28.857Z,70.50
2023-10-26T02:15:55.900Z,68.72
2023-10-26T02:18:23.013Z,70.43
2023-10-26T02:20:50.362Z,71.75
2023-10-26T02:23:37.819Z,72.97
2023-10-26T02:26:18.948Z,77.63
2023-10-26T02:29:05.764Z,79.80
2023-10-26T02:32:07.137Z,78.75
2023-10-26T02:35:07.968Z,80.70
2023-10-26T02:37:49.522Z,77.30
2023-10-26T02:40:16.501Z,79.40
2023-10-26T02:42:43.618Z,76.00
2023-10-26T02:45:10.914Z,77.75
2023-10-26T02:47:39.242Z,75.65
2023-10-26T02:50:07.685Z,82.75
2023-10-26T02:52:54.762Z,74.72
2023-10-26T02:55:35.418Z,79.45
2023-10-26T02:58:02.610Z,79.28
2023-10-26T03:00:49.876Z,78.10
2023-10-26T03:03:38.900Z,75.40
2023-10-26T03:06:06.472Z,75.50
2023-10-26T03:08:33.577Z,78.57
2023-10-26T03:11:00.715Z,78.80
2023-10-26T03:13:28.033Z,80.28
2023-10-26T03:15:55.452Z,76.28
2023-10-26T03:18:23.030Z,81.63
2023-10-26T03:20:50.177Z,82.75
2023-10-26T03:23:17.552Z,90.05
2023-10-26T03:25:44.592Z,87.03
2023-10-26T03:28:11.685Z,91.93
2023-10-26T03:30:59.016Z,90.32
2023-10-26T03:33:40.830Z,97.97
2023-10-26T03:36:17.790Z,96.05
2023-10-26T03:38:46.188Z,90.45
2023-10-26T03:41:13.989Z,87.35
2023-10-26T03:43:41.279Z,91.60
2023-10-26T03:46:08.848Z,95.78
2023-10-26T03:48:36.783Z,92.00
2023-10-26T03:51:24.301Z,97.18
2023-10-26T03:54:25.116Z,95.75
2023-10-26T03:57:07.464Z,98.75
2023-10-26T03:59:54.933Z,101.05
2023-10-26T04:03:06.320Z,95.93
2023-10-26T04:05:46.772Z,100.40
2023-10-26T04:08:14.105Z,98.75
2023-10-26T04:10:43.598Z,95.53
2023-10-26T04:13:10.900Z,95.32
2023-10-26T04:15:38.003Z,94.90
2023-10-26T04:18:07.397Z,96.80
2023-10-26T04:20:34.950Z,93.47
2023-10-26T04:23:02.136Z,91.22
2023-10-26T04:25:42.106Z,93.20
2023-10-26T04:28:17.546Z,89.85
2023-10-26T04:31:04.882Z,94.57
2023-10-26T04:33:45.543Z,84.57
2023-10-26T04:36:12.734Z,89.07
2023-10-26T04:38:40.537Z,94.70
2023-10-26T04:41:07.637Z,92.20
2023-10-26T04:43:35.150Z,90.18
2023-10-26T04:46:02.328Z,90.30
2023-10-26T04:48:30.229Z,91.82
2023-10-26T04:51:18.003Z,87.53
2023-10-26T04:54:19.017Z,86.82
2023-10-26T04:56:59.465Z,86.45
2023-10-26T04:59:46.879Z,85.90
2023-10-26T05:02:48.290Z,91.65
2023-10-26T05:05:28.484Z,88.32
2023-10-26T05:07:55.665Z,87.93
2023-10-26T05:10:42.875Z,91.15
2023-10-26T05:13:43.986Z,82.53
2023-10-26T05:16:45.099Z,88.32
2023-10-26T05:19:25.552Z,85.88
2023-10-26T05:21:52.790Z,83.18
2023-10-26T05:24:19.723Z,84.88
2023-10-26T05:26:47.139Z,87.57
2023-10-26T05:29:33.916Z,83.25
2023-10-26T05:32:34.961Z,81.68
2023-10-26T05:35:15.796Z,77.57
2023-10-26T05:37:42.898Z,81.95
2023-10-26T05:40:10.503Z,77.32
2023-10-26T05:42:58.318Z,80.38
2023-10-26T05:45:41.379Z,75.18
2023-10-26T05:48:10.973Z,77.60
2023-10-26T05:50:57.876Z,75.47
2023-10-26T05:53:58.877Z,70.05
2023-10-26T05:57:00.363Z,73.25
2023-10-26T06:00:00.923Z,71.68
2023-10-26T06:03:06.014Z,76.38
2023-10-26T06:05:46.460Z,73.07
2023-10-26T06:08:13.590Z,75.38
2023-10-26T06:10:41.426Z,72.95
2023-10-26T06:13:11.960Z,74.43
2023-10-26T06:15:38.962Z,74.32
2023-10-26T06:18:06.225Z,75.40
2023-10-26T06:20:52.917Z,74.43
2023-10-26T06:23:34.627Z,74.45
2023-10-26T06:26:03.238Z,72.32
2023-10-26T06:28:30.541Z,73.15
2023-10-26T06:31:24.970Z,76.40
2023-10-26T06:34:05.561Z,72.60
2023-10-26T06:36:32.623Z,69.80
2023-10-26T06:39:00.902Z,69.32
2023-10-26T06:41:48.129Z,69.20
2023-10-26T06:44:49.978Z,67.50
2023-10-26T06:47:31.185Z,67.40
2023-10-26T06:49:58.109Z,65.82
2023-10-26T06:52:44.940Z,64.18
2023-10-26T06:55:30.734Z,63.78
2023-10-26T06:57:58.535Z,64.53
2023-10-26T07:00:52.107Z,65.07
2023-10-26T07:03:40.907Z,60.28
2023-10-26T07:06:08.206Z,63.45
2023-10-26T07:08:35.566Z,60.90
2023-10-26T07:11:22.953Z,62.63
2023-10-26T07:14:23.945Z,58.03
2023-10-26T07:17:25.025Z,59.47
2023-10-26T07:20:25.957Z,60.10
2023-10-26T07:23:06.504Z,58.88
2023-10-26T07:25:37.184Z,57.90
2023-10-26T07:28:04.446Z,57.20
2023-10-26T07:30:59.126Z,55.45
2023-10-26T07:33:39.596Z,57.28
2023-10-26T07:36:08.170Z,55.63
2023-10-26T07:38:37.825Z,54.78
2023-10-26T07:41:18.442Z,56.35
2023-10-26T07:44:19.719Z,53.40
2023-10-26T07:46:46.629Z,61.78
2023-10-26T07:49:13.627Z,57.22
2023-10-26T07:52:00.973Z,59.70
2023-10-26T07:55:02.111Z,59.28
2023-10-26T07:58:03.063Z,60.08
2023-10-26T08:01:04.130Z,59.15
2023-10-26T08:03:46.007Z,60.75
2023-10-26T08:06:12.945Z,61.40
2023-10-26T08:08:39.978Z,63.53
2023-10-26T08:11:14.914Z,63.30
2023-10-26T08:13:42.320Z,60.55
2023-10-26T08:16:40.716Z,63.65
2023-10-26T08:18:56.438Z,63.60
2023-10-26T08:21:23.441Z,62.50
2023-10-26T08:23:50.852Z,60.33
2023-10-26T08:26:17.703Z,55.97
2023-10-26T08:29:13.708Z,52.78
2023-10-26T08:32:17.161Z,57.35
2023-10-26T08:34:57.656Z,56.17
2023-10-26T08:37:27.064Z,55.45
2023-10-26T08:39:54.854Z,56.78
2023-10-26T08:42:21.909Z,54.15
2023-10-26T08:44:49.779Z,53.85
2023-10-26T08:47:21.219Z,53.50
2023-10-26T08:50:08.172Z,54.40
2023-10-26T08:53:14.089Z,51.83
2023-10-26T08:55:57.892Z,52.10
2023-10-26T08:58:24.988Z,54.25
2023-10-26T09:01:05.848Z,56.90
2023-10-26T09:03:46.911Z,56.05
2023-10-26T09:06:14.091Z,56.17
2023-10-26T09:08:41.103Z,54.53
2023-10-26T09:11:23.788Z,62.05
2023-10-26T09:13:51.591Z,58.28
2023-10-26T09:16:18.677Z,57.45
2023-10-26T09:18:51.348Z,58.47
2023-10-26T09:21:18.829Z,55.63
2023-10-26T09:23:46.595Z,58.35
2023-10-26T09:26:14.662Z,53.25
2023-10-26T09:29:11.012Z,60.45
2023-10-26T09:32:12.139Z,58.25
2023-10-26T09:34:52.617Z,61.40
2023-10-26T09:37:19.626Z,57.20
2023-10-26T09:40:14.727Z,54.88
2023-10-26T09:43:17.024Z,56.90
2023-10-26T09:45:56.729Z,54.40
2023-10-26T09:48:26.300Z,53.97
2023-10-26T09:51:13.091Z,50.90
2023-10-26T09:54:12.171Z,50.28
2023-10-26T09:56:42.231Z,49.75
2023-10-26T09:59:29.222Z,54.58
2023-10-26T10:02:34.082Z,52.72
2023-10-26T10:08:00.231Z,54.90
2023-10-26T10:10:27.224Z,57.30
2023-10-26T10:12:54.571Z,54.38
2023-10-26T10:15:44.420Z,56.15
2023-10-26T10:18:12.216Z,57.83
2023-10-26T10:20:41.938Z,56.90
2023-10-26T10:23:09.955Z,56.25
2023-10-26T10:25:52.408Z,56.88
2023-10-26T10:28:19.975Z,53.30
2023-10-26T10:31:10.058Z,51.40
2023-10-26T10:34:02.105Z,51.45
2023-10-26T10:36:29.348Z,50.38
2023-10-26T10:39:23.910Z,51.40
2023-10-26T10:41:51.958Z,48.55
2023-10-26T10:44:21.392Z,52.38
2023-10-26T10:46:49.509Z,51.15
2023-10-26T10:49:40.412Z,45.72
2023-10-26T10:52:41.250Z,49.20
2023-10-26T10:55:38.732Z,47.13
2023-10-26T10:58:06.136Z,45.33
2023-10-26T11:01:01.213Z,45.58
2023-10-26T11:03:42.497Z,45.88
2023-10-26T11:06:22.453Z,48.08
2023-10-26T11:08:49.440Z,47.70
2023-10-26T11:11:28.390Z,42.90
2023-10-26T11:14:13.517Z,44.53
2023-10-26T11:16:42.998Z,45.08
2023-10-26T11:19:10.133Z,44.97
2023-10-26T11:21:37.234Z,41.72
2023-10-26T11:24:04.911Z,45.50
2023-10-26T11:26:31.904Z,43.70
2023-10-26T11:29:19.297Z,44.22
2023-10-26T11:32:37.116Z,45.58
2023-10-26T11:35:17.771Z,46.08
2023-10-26T11:37:56.694Z,44.42
2023-10-26T11:40:31.903Z,45.58
2023-10-26T11:43:06.713Z,46.97
2023-10-26T11:46:03.347Z,44.72
2023-10-26T11:49:07.152Z,45.80
2023-10-26T11:52:08.457Z,44.90
2023-10-26T11:55:09.102Z,44.75
2023-10-26T11:58:10.151Z,43.75
2023-10-26T12:01:11.127Z,42.97
2023-10-26T12:04:12.122Z,45.92
2023-10-26T12:07:13.513Z,43.95
2023-10-26T12:09:54.020Z,44.30
2023-10-26T12:12:21.123Z,42.63
2023-10-26T12:14:48.947Z,41.90
2023-10-26T12:17:16.120Z,43.67
2023-10-26T12:19:43.303Z,42.30
2023-10-26T12:22:10.663Z,42.00
2023-10-26T12:24:37.706Z,43.95
2023-10-26T12:27:04.972Z,44.17
2023-10-26T12:29:52.157Z,43.97
2023-10-26T12:32:53.189Z,42.58
2023-10-26T12:35:29.396Z,45.08
2023-10-26T12:37:56.515Z,43.85
2023-10-26T12:40:23.618Z,43.00
2023-10-26T12:42:58.935Z,44.70
2023-10-26T12:45:46.193Z,45.22
2023-10-26T12:48:47.163Z,47.20
2023-10-26T12:51:48.269Z,47.80
2023-10-26T12:54:49.194Z,45.05
2023-10-26T12:57:51.188Z,45.28
2023-10-26T13:00:53.263Z,46.00
2023-10-26T13:03:56.598Z,45.20
2023-10-26T13:06:59.327Z,41.90
2023-10-26T13:09:42.515Z,43.72
2023-10-26T13:12:10.536Z,46.00
2023-10-26T13:14:38.284Z,46.55
2023-10-26T13:17:06.423Z,44.65
2023-10-26T13:19:33.568Z,44.67
2023-10-26T13:22:00.972Z,42.85
2023-10-26T13:24:28.415Z,42.22
2023-10-26T13:26:55.595Z,41.70
2023-10-26T13:29:51.245Z,46.85
2023-10-26T13:32:52.229Z,45.42
2023-10-26T13:35:31.408Z,43.90
2023-10-26T13:37:58.505Z,42.65
2023-10-26T13:40:25.936Z,45.17
2023-10-26T13:42:53.197Z,43.42
2023-10-26T13:45:20.461Z,41.22
2023-10-26T13:48:08.183Z,40.38
2023-10-26T13:51:02.310Z,40.75
2023-10-26T13:53:57.183Z,41.17
2023-10-26T13:56:58.178Z,42.33
2023-10-26T13:59:59.167Z,44.47
2023-10-26T14:03:06.288Z,43.05
2023-10-26T14:05:51.290Z,43.17
2023-10-26T14:08:18.812Z,40.60
2023-10-26T14:10:58.538Z,41.75
2023-10-26T14:13:25.455Z,42.95
2023-10-26T14:15:52.505Z,42.22
2023-10-26T14:18:19.779Z,41.00
2023-10-26T14:20:46.788Z,41.13
2023-10-26T14:23:13.788Z,42.10
2023-10-26T14:25:42.919Z,39.85
2023-10-26T14:28:10.088Z,37.53
2023-10-26T14:30:57.274Z,38.42
2023-10-26T14:33:37.901Z,41.67
2023-10-26T14:36:07.214Z,41.55
2023-10-26T14:38:34.519Z,42.45
2023-10-26T14:41:02.170Z,41.70
2023-10-26T14:43:29.633Z,44.63
2023-10-26T14:45:56.797Z,47.55
2023-10-26T14:48:44.321Z,45.53
2023-10-26T14:51:45.232Z,43.67
2023-10-26T14:54:25.835Z,47.28
2023-10-26T14:57:13.606Z,49.35
2023-10-26T15:00:15.234Z,49.80
2023-10-26T15:03:16.238Z,47.63
2023-10-26T15:06:17.220Z,49.08
2023-10-26T15:10:20.669Z,50.90
2023-10-26T15:12:31.175Z,51.50
2023-10-26T15:14:58.875Z,50.50
2023-10-26T15:17:26.751Z,51.55
2023-10-26T15:19:54.385Z,52.10
2023-10-26T15:22:21.430Z,53.55
2023-10-26T15:24:48.878Z,53.55
2023-10-26T15:27:15.994Z,56.83
2023-10-26T15:30:03.297Z,51.92
2023-10-26T15:33:04.265Z,55.28
2023-10-26T15:35:32.099Z,54.20
2023-10-26T15:37:59.111Z,53.63
2023-10-26T15:40:30.174Z,54.47
2023-10-26T15:42:57.192Z,49.53
2023-10-26T15:45:24.438Z,54.72
2023-10-26T15:47:52.466Z,50.60
2023-10-26T15:50:19.467Z,52.33
2023-10-26T15:52:46.524Z,52.97
2023-10-26T15:55:33.299Z,53.97
2023-10-26T15:58:34.324Z,61.42
2023-10-26T16:01:35.353Z,56.80
2023-10-26T16:04:39.322Z,55.75
2023-10-26T16:07:40.334Z,53.83
2023-10-26T16:10:21.089Z,56.50
2023-10-26T16:12:50.775Z,55.80
2023-10-26T16:15:21.541Z,54.75
2023-10-26T16:17:48.835Z,49.35
2023-10-26T16:20:15.891Z,57.92
2023-10-26T16:22:43.884Z,54.72
2023-10-26T16:25:11.280Z,53.42
2023-10-26T16:27:38.369Z,53.20
2023-10-26T16:30:25.327Z,59.28
2023-10-26T16:33:06.197Z,63.35
2023-10-26T16:35:33.271Z,61.53
2023-10-26T16:38:00.391Z,63.45
2023-10-26T16:40:28.445Z,75.55
2023-10-26T16:42:55.511Z,70.03
2023-10-26T16:45:22.585Z,77.78
2023-10-26T16:47:55.857Z,77.28
2023-10-26T16:50:23.936Z,79.55
2023-10-26T16:52:51.671Z,79.65
2023-10-26T16:55:18.882Z,80.22
2023-10-26T16:57:46.000Z,73.30
2023-10-26T17:00:34.312Z,62.10
2023-10-26T17:03:35.676Z,62.38
2023-10-26T17:06:29.653Z,58.00
2023-10-26T17:09:30.311Z,56.25
2023-10-26T17:12:28.304Z,54.42
2023-10-26T17:18:18.292Z,53.60
2023-10-26T17:20:59.102Z,53.20
2023-10-26T17:23:26.241Z,51.88
2023-10-26T17:25:53.654Z,53.67
2023-10-26T17:28:20.564Z,56.47
2023-10-26T17:31:07.480Z,56.25
2023-10-26T17:34:08.364Z,53.33
2023-10-26T17:36:48.928Z,57.67
2023-10-26T17:39:16.015Z,54.35
2023-10-26T17:41:43.008Z,64.68
2023-10-26T17:44:09.945Z,58.80
2023-10-26T17:46:37.227Z,62.35
2023-10-26T17:49:04.400Z,58.28
2023-10-26T17:51:33.999Z,62.50
2023-10-26T17:54:05.532Z,64.22
2023-10-26T17:56:35.423Z,62.45
2023-10-26T17:59:26.603Z,66.22
2023-10-26T18:02:27.393Z,64.05
2023-10-26T18:05:28.379Z,67.72
2023-10-26T18:08:08.985Z,68.28
2023-10-26T18:10:36.004Z,69.68
2023-10-26T18:13:03.180Z,70.28
2023-10-26T18:15:50.741Z,66.07
2023-10-26T18:18:46.720Z,65.25
2023-10-26T18:21:40.445Z,71.25
2023-10-26T18:24:21.048Z,69.78
2023-10-26T18:26:48.132Z,68.75
2023-10-26T18:29:15.150Z,69.20
2023-10-26T18:31:43.521Z,69.18
2023-10-26T18:34:10.735Z,68.55
2023-10-26T18:36:40.321Z,66.90
2023-10-26T18:39:07.604Z,68.53
2023-10-26T18:41:34.798Z,71.80
2023-10-26T18:44:02.160Z,65.15
2023-10-26T18:46:29.294Z,69.43
2023-10-26T18:48:57.178Z,64.68
2023-10-26T18:51:24.530Z,68.03
2023-10-26T18:53:52.222Z,68.60
2023-10-26T18:56:22.646Z,65.45
2023-10-26T18:59:09.380Z,66.60
2023-10-26T19:02:10.410Z,66.90
2023-10-26T19:05:12.378Z,67.25
2023-10-26T19:07:53.569Z,64.05
2023-10-26T19:10:20.653Z,63.47
2023-10-26T19:12:52.939Z,66.75
2023-10-26T19:15:40.448Z,64.00
2023-10-26T19:18:40.031Z,66.13
2023-10-26T19:21:08.556Z,66.70
2023-10-26T19:23:35.723Z,66.32
2023-10-26T19:26:03.166Z,67.18
2023-10-26T19:28:31.171Z,69.28
2023-10-26T19:31:19.565Z,67.45
2023-10-26T19:34:20.896Z,67.93
2023-10-26T19:37:21.433Z,65.95
2023-10-26T19:40:06.429Z,63.70
2023-10-26T19:42:36.627Z,71.95
2023-10-26T19:45:09.364Z,68.05
2023-10-26T19:47:39.133Z,72.80
2023-10-26T19:50:08.390Z,70.30
2023-10-26T19:52:36.219Z,68.20
2023-10-26T19:55:04.284Z,67.25
2023-10-26T19:57:32.289Z,70.60
2023-10-26T20:00:23.423Z,64.38
2023-10-26T20:03:24.542Z,72.10
2023-10-26T20:06:26.537Z,73.18
2023-10-26T20:09:07.493Z,67.32
2023-10-26T20:11:34.601Z,68.78
2023-10-26T20:14:04.025Z,69.78
2023-10-26T20:16:51.728Z,68.07
2023-10-26T20:19:52.598Z,69.32
2023-10-26T20:22:53.476Z,68.25
2023-10-26T20:25:27.128Z,64.80
2023-10-26T20:27:54.636Z,67.07
2023-10-26T20:30:21.668Z,65.88
2023-10-26T20:32:50.052Z,68.25
2023-10-26T20:35:18.139Z,66.90
2023-10-26T20:37:45.111Z,66.40
2023-10-26T20:40:13.490Z,65.78
2023-10-26T20:42:44.268Z,65.75
2023-10-26T20:45:31.428Z,71.10
2023-10-26T20:48:32.785Z,67.43
2023-10-26T20:51:30.266Z,65.90
2023-10-26T20:53:57.217Z,60.03
2023-10-26T20:56:24.356Z,64.47
2023-10-26T20:59:11.444Z,69.32
2023-10-26T21:02:12.508Z,65.03
2023-10-26T21:05:13.479Z,65.50
2023-10-26T21:07:54.883Z,65.30
2023-10-26T21:10:22.395Z,66.15
2023-10-26T21:12:49.623Z,65.80
2023-10-26T21:15:36.555Z,68.60
2023-10-26T21:18:37.707Z,69.78
2023-10-26T21:21:08.229Z,64.25
2023-10-26T21:23:36.530Z,71.65
2023-10-26T21:26:08.233Z,67.95
2023-10-26T21:28:37.741Z,68.00
2023-10-26T21:31:04.892Z,70.85
2023-10-26T21:33:32.646Z,71.88
2023-10-26T21:35:59.901Z,73.20
2023-10-26T21:38:28.188Z,71.78
2023-10-26T21:40:55.317Z,75.60
2023-10-26T21:43:42.507Z,72.85
2023-10-26T21:46:33.645Z,72.03
2023-10-26T21:49:00.822Z,80.15
2023-10-26T21:51:27.827Z,80.57
2023-10-26T21:53:54.779Z,80.68
2023-10-26T21:56:21.815Z,74.68
2023-10-26T21:58:49.045Z,79.60
2023-10-26T22:01:16.155Z,76.05
2023-10-26T22:03:48.281Z,75.97
2023-10-26T22:06:19.595Z,75.15
2023-10-26T22:08:46.523Z,73.47
2023-10-26T22:11:13.465Z,76.18
2023-10-26T22:13:40.471Z,70.78
2023-10-26T22:16:27.645Z,75.82
2023-10-26T22:19:28.508Z,75.40
2023-10-26T22:22:29.520Z,77.03
2023-10-26T22:25:10.865Z,75.55
2023-10-26T22:27:37.833Z,79.78
2023-10-26T22:30:05.586Z,76.00
2023-10-26T22:32:32.694Z,71.25
2023-10-26T22:34:59.846Z,76.18
2023-10-26T22:37:26.829Z,69.43
2023-10-26T22:39:55.052Z,80.32
2023-10-26T22:42:42.862Z,80.78
2023-10-26T22:45:43.598Z,80.82
2023-10-26T22:48:25.017Z,85.25
2023-10-26T22:50:51.955Z,77.00
2023-10-26T22:53:19.040Z,80.88
2023-10-26T22:55:46.944Z,85.13
2023-10-26T22:58:13.962Z,75.60
2023-10-26T23:01:01.812Z,77.70
2023-10-26T23:04:02.603Z,79.75
2023-10-26T23:07:03.601Z,87.47
2023-10-26T23:09:44.234Z,81.57
2023-10-26T23:12:11.265Z,83.57
2023-10-26T23:14:58.597Z,82.53
2023-10-26T23:17:59.594Z,79.18
2023-10-26T23:20:40.120Z,81.35
2023-10-26T23:23:07.077Z,78.90
2023-10-26T23:25:41.705Z,79.68
2023-10-26T23:28:08.803Z,77.13
2023-10-26T23:30:36.730Z,71.63
2023-10-26T23:33:04.094Z,74.15
2023-10-26T23:35:32.247Z,68.00
2023-10-26T23:37:59.298Z,73.50
2023-10-26T23:40:26.331Z,66.57
2023-10-26T23:43:14.597Z,72.90
2023-10-26T23:46:15.603Z,72.55
2023-10-26T23:48:44.669Z,73.05
2023-10-26T23:51:11.730Z,70.60
2023-10-26T23:53:38.696Z,68.15
2023-10-26T23:56:05.967Z,66.68
2023-10-26T23:58:33.062Z,68.93
